Time;durP1;ratioP1;P1;durP2;ratioP2;P2;SDS_P1;SDS_P2;PMS_P1;PMS_P2;Temp;Humidity;BMP_temperature;BMP_pressure;BME280_temperature;BME280_humidity;BME280_pressure;Samples;Min_cycle;Max_cycle;Signal;HPM_P1;HPM_P2
2022/05/08 00:00:02;;;;;;;10.37;9.30;;;15.70;1.00;;;;;;5110173;28;20234;-57
2022/05/08 00:02:27;;;;;;;12.53;10.27;;;15.60;1.00;;;;;;5108739;28;20703;-57
2022/05/08 00:04:53;;;;;;;10.53;9.40;;;15.60;1.00;;;;;;5106264;28;20456;-58
2022/05/08 00:07:22;;;;;;;11.17;10.07;;;15.60;1.00;;;;;;5094306;28;20212;-58
2022/05/08 00:09:49;;;;;;;10.60;9.60;;;15.60;1.00;;;;;;5087629;28;20229;-58
2022/05/08 00:12:16;;;;;;;10.47;9.47;;;15.50;1.00;;;;;;5109293;28;20879;-59
2022/05/08 00:14:43;;;;;;;11.10;10.00;;;15.40;1.00;;;;;;5095440;28;20444;-58
2022/05/08 00:17:13;;;;;;;10.20;9.17;;;15.40;1.00;;;;;;5101752;28;20459;-58
2022/05/08 00:19:39;;;;;;;11.33;10.23;;;15.30;1.00;;;;;;5103685;28;21341;-58
2022/05/08 00:22:06;;;;;;;11.73;10.53;;;15.30;1.00;;;;;;5112606;28;20447;-58
2022/05/08 00:24:32;;;;;;;11.27;10.20;;;15.30;1.00;;;;;;5107958;28;20443;-58
2022/05/08 00:26:58;;;;;;;10.73;9.73;;;15.30;1.00;;;;;;5111112;28;20443;-58
2022/05/08 00:29:23;;;;;;;10.87;9.77;;;15.30;1.00;;;;;;5103964;28;20432;-57
2022/05/08 00:31:49;;;;;;;11.07;10.00;;;15.20;1.00;;;;;;5106098;28;20194;-58
2022/05/08 00:34:15;;;;;;;12.70;10.87;;;15.20;1.00;;;;;;5103992;28;20186;-57
2022/05/08 00:36:40;;;;;;;12.90;10.63;;;15.10;1.00;;;;;;5108681;28;20251;-58
2022/05/08 00:39:06;;;;;;;10.47;9.50;;;15.00;1.00;;;;;;5100513;28;20189;-58
2022/05/08 00:41:31;;;;;;;10.43;9.43;;;15.00;1.00;;;;;;5108781;28;20190;-57
2022/05/08 00:43:57;;;;;;;10.70;9.57;;;15.00;1.00;;;;;;5103686;28;20240;-58
2022/05/08 00:46:22;;;;;;;11.20;10.20;;;15.00;1.00;;;;;;5111128;28;20229;-58
2022/05/08 00:48:48;;;;;;;11.93;9.50;;;14.90;1.00;;;;;;5103906;28;20522;-57
2022/05/08 00:51:17;;;;;;;10.43;9.40;;;14.90;1.00;;;;;;5106833;28;20281;-58
2022/05/08 00:53:45;;;;;;;12.13;9.50;;;14.90;1.00;;;;;;5106141;28;20183;-57
2022/05/08 00:56:12;;;;;;;9.20;8.40;;;14.80;1.00;;;;;;5108220;28;20448;-58
2022/05/08 00:58:40;;;;;;;9.40;8.60;;;14.80;1.00;;;;;;5103482;28;20531;-57
2022/05/08 01:01:08;;;;;;;11.33;9.90;;;14.70;1.00;;;;;;5098360;28;21128;-57
2022/05/08 01:03:34;;;;;;;10.27;9.40;;;;;;;;;;5100672;28;20461;-57
2022/05/08 01:06:05;;;;;;;8.70;8.00;;;14.70;1.00;;;;;;5091826;28;20460;-58
2022/05/08 01:08:34;;;;;;;10.27;8.33;;;14.70;1.00;;;;;;5103127;28;20444;-58
2022/05/08 01:11:04;;;;;;;9.80;8.80;;;14.70;1.00;;;;;;5103393;28;20451;-57
2022/05/08 01:13:29;;;;;;;10.27;9.33;;;14.60;1.00;;;;;;5100477;28;20851;-57
2022/05/08 01:15:56;;;;;;;10.23;9.23;;;14.60;1.00;;;;;;5107000;28;20455;-58
2022/05/08 01:18:22;;;;;;;8.50;7.70;;;14.60;1.00;;;;;;5099294;28;20604;-57
2022/05/08 01:20:48;;;;;;;9.40;8.70;;;14.50;1.00;;;;;;5096597;28;20863;-58
2022/05/08 01:23:15;;;;;;;9.03;8.13;;;14.50;1.00;;;;;;5105926;28;20487;-58
2022/05/08 01:25:48;;;;;;;9.93;8.93;;;14.50;1.00;;;;;;5106882;28;20471;-59
2022/05/08 01:28:14;;;;;;;9.70;8.70;;;14.50;1.00;;;;;;5096587;28;20448;-57
2022/05/08 01:30:41;;;;;;;9.33;8.43;;;14.40;1.00;;;;;;5102559;28;20455;-59
2022/05/08 01:33:06;;;;;;;11.00;9.00;;;14.40;1.00;;;;;;5108804;28;20435;-58
2022/05/08 01:35:32;;;;;;;11.63;8.10;;;14.40;1.00;;;;;;5106123;28;20967;-58
2022/05/08 01:37:58;;;;;;;9.83;8.87;;;14.40;1.00;;;;;;5110252;28;20190;-57
2022/05/08 01:40:24;;;;;;;12.73;7.90;;;14.40;1.00;;;;;;5100579;28;20194;-57
2022/05/08 01:42:49;;;;;;;9.40;8.40;;;14.40;1.00;;;;;;5101680;28;20706;-58
2022/05/08 01:45:15;;;;;;;8.63;7.73;;;14.40;1.00;;;;;;5103861;28;20562;-58
2022/05/08 01:50:25;;;;;;;10.70;9.70;;;14.30;1.00;;;;;;5101032;28;20324;-57
2022/05/08 01:52:51;;;;;;;9.33;8.40;;;14.30;1.00;;;;;;5095466;28;20869;-58
2022/05/08 01:55:17;;;;;;;9.53;8.63;;;14.20;1.00;;;;;;5100846;28;20174;-58
2022/05/08 01:57:44;;;;;;;8.93;8.03;;;14.20;1.00;;;;;;5107064;28;20450;-58
2022/05/08 02:00:10;;;;;;;9.50;8.60;;;14.10;1.00;;;;;;5105213;28;20451;-58
2022/05/08 02:02:35;;;;;;;10.97;10.00;;;14.10;1.00;;;;;;5106565;28;20515;-58
2022/05/08 02:05:02;;;;;;;10.70;9.60;;;14.00;1.00;;;;;;5100564;28;20952;-58
2022/05/08 02:07:28;;;;;;;9.60;8.60;;;14.00;1.00;;;;;;5099535;28;20178;-58
2022/05/08 02:09:54;;;;;;;9.50;8.60;;;;;;;;;;5100458;28;21003;-58
2022/05/08 02:12:20;;;;;;;9.50;8.60;;;14.00;1.00;;;;;;5099099;28;20225;-57
2022/05/08 02:14:45;;;;;;;10.40;9.40;;;14.00;1.00;;;;;;5100855;28;20483;-58
2022/05/08 02:17:11;;;;;;;10.20;8.60;;;13.90;1.00;;;;;;5108369;28;20693;-58
2022/05/08 02:19:37;;;;;;;9.67;8.67;;;13.80;1.00;;;;;;5102360;28;20557;-57
2022/05/08 02:22:03;;;;;;;8.77;7.73;;;13.80;1.00;;;;;;5100958;28;20462;-58
2022/05/08 02:24:28;;;;;;;8.90;8.10;;;13.80;1.00;;;;;;5100447;28;20191;-57
2022/05/08 02:26:54;;;;;;;9.03;8.03;;;13.80;1.00;;;;;;5105593;28;20753;-58
2022/05/08 02:29:19;;;;;;;8.63;7.80;;;13.80;1.00;;;;;;5105023;28;20216;-57
2022/05/08 02:31:45;;;;;;;9.17;8.30;;;;;;;;;;5104997;28;20536;-58
2022/05/08 02:34:11;;;;;;;11.77;8.67;;;13.80;1.00;;;;;;5092345;28;20187;-58
2022/05/08 02:36:36;;;;;;;10.17;9.20;;;13.70;1.00;;;;;;5095566;28;20443;-57
2022/05/08 02:39:02;;;;;;;9.00;8.20;;;13.60;1.00;;;;;;5105464;28;20226;-58
2022/05/08 02:41:28;;;;;;;8.77;7.87;;;13.60;1.00;;;;;;5102187;28;20677;-58
2022/05/08 02:43:53;;;;;;;8.90;7.80;;;13.60;1.00;;;;;;5100547;28;20225;-58
2022/05/08 02:46:19;;;;;;;9.23;8.37;;;13.60;1.00;;;;;;5101067;28;20222;-58
2022/05/08 02:48:44;;;;;;;8.63;7.80;;;13.60;1.00;;;;;;5103328;28;20182;-57
2022/05/08 02:51:10;;;;;;;9.00;8.10;;;;;;;;;;5106374;28;20186;-59
2022/05/08 02:53:36;;;;;;;10.07;8.60;;;13.60;1.00;;;;;;5105266;28;20266;-58
2022/05/08 02:58:48;;;;;;;9.80;8.90;;;13.60;1.00;;;;;;5103457;28;20246;-58
2022/05/08 03:01:13;;;;;;;9.97;9.03;;;13.60;1.00;;;;;;5103667;28;20447;-59
2022/05/08 03:03:39;;;;;;;8.80;8.00;;;13.50;1.00;;;;;;5098754;28;20289;-59
2022/05/08 03:06:06;;;;;;;10.10;9.20;;;13.50;1.00;;;;;;5105924;28;20248;-58
2022/05/08 03:08:31;;;;;;;10.70;9.70;;;13.40;1.00;;;;;;5111502;28;20697;-58
2022/05/08 03:13:42;;;;;;;10.67;9.27;;;13.40;1.00;;;;;;5104752;28;20257;-59
2022/05/08 03:16:10;;;;;;;10.63;9.63;;;13.40;1.00;;;;;;5107999;28;20439;-58
2022/05/08 03:18:38;;;;;;;10.93;9.83;;;13.40;1.00;;;;;;5106351;28;20440;-58
2022/05/08 03:21:07;;;;;;;11.13;10.07;;;13.30;1.00;;;;;;5101772;28;20451;-59
2022/05/08 03:23:34;;;;;;;9.67;8.77;;;13.30;1.00;;;;;;5099507;28;20781;-59
2022/05/08 03:26:00;;;;;;;11.13;10.13;;;13.20;1.00;;;;;;5109627;28;20559;-58
2022/05/08 03:28:25;;;;;;;10.70;9.67;;;13.30;1.00;;;;;;5110015;28;20447;-59
2022/05/08 03:30:51;;;;;;;10.13;9.30;;;13.30;1.00;;;;;;5111939;28;20436;-58
2022/05/08 03:33:17;;;;;;;9.80;8.80;;;13.20;1.00;;;;;;5105660;28;20186;-57
2022/05/08 03:35:43;;;;;;;9.43;8.63;;;13.20;1.00;;;;;;5112620;28;20673;-59
2022/05/08 03:38:09;;;;;;;8.83;8.10;;;13.10;1.00;;;;;;5102627;28;20457;-58
2022/05/08 03:40:35;;;;;;;9.47;8.70;;;13.10;1.00;;;;;;5097927;28;20675;-58
2022/05/08 03:43:02;;;;;;;9.20;8.30;;;13.10;1.00;;;;;;5099773;28;20933;-58
2022/05/08 03:45:29;;;;;;;16.67;9.20;;;13.20;1.00;;;;;;5098414;28;20468;-59
2022/05/08 03:47:55;;;;;;;9.03;8.23;;;13.20;1.00;;;;;;5103358;28;20945;-59
2022/05/08 03:50:21;;;;;;;11.00;9.57;;;13.20;1.00;;;;;;5111455;28;20530;-58
2022/05/08 03:52:47;;;;;;;10.43;9.33;;;13.30;1.00;;;;;;5105995;28;20523;-58
2022/05/08 03:55:15;;;;;;;10.73;9.63;;;13.10;1.00;;;;;;5102616;28;20462;-60
2022/05/08 03:57:41;;;;;;;8.87;8.07;;;13.40;1.00;;;;;;5109602;28;21195;-59
2022/05/08 04:00:08;;;;;;;9.07;8.27;;;13.30;1.00;;;;;;5103175;28;20444;-59
2022/05/08 04:02:34;;;;;;;8.43;7.73;;;13.50;1.00;;;;;;5104935;28;20411;-59
2022/05/08 04:05:00;;;;;;;8.90;8.10;;;13.50;1.00;;;;;;5101751;28;20965;-58
2022/05/08 04:07:26;;;;;;;8.17;7.47;;;13.60;1.00;;;;;;5104834;28;20178;-59
2022/05/08 04:09:51;;;;;;;8.83;7.90;;;13.60;1.00;;;;;;5103802;28;20470;-58
2022/05/08 04:12:17;;;;;;;7.83;7.13;;;13.70;1.00;;;;;;5109179;28;20439;-58
2022/05/08 04:14:43;;;;;;;10.33;7.87;;;13.80;1.00;;;;;;5102079;28;20536;-57
2022/05/08 04:17:08;;;;;;;9.13;8.33;;;13.90;1.00;;;;;;5101578;28;20182;-58
2022/05/08 04:19:34;;;;;;;9.37;8.57;;;;;;;;;;5104474;28;20733;-58
2022/05/08 04:24:44;;;;;;;8.73;7.90;;;14.00;1.00;;;;;;5105759;28;20801;-58
2022/05/08 04:27:10;;;;;;;9.27;8.30;;;14.00;1.00;;;;;;5109455;28;20439;-57
2022/05/08 04:29:37;;;;;;;9.90;9.00;;;13.90;1.00;;;;;;5103672;28;20206;-56
2022/05/08 04:32:03;;;;;;;9.37;8.33;;;14.80;1.00;;;;;;5110906;28;20644;-58
2022/05/08 04:34:28;;;;;;;9.67;8.73;;;13.90;1.00;;;;;;5104367;28;20463;-57
2022/05/08 04:36:54;;;;;;;10.37;8.63;;;13.90;1.00;;;;;;5107473;28;20443;-56
2022/05/08 04:39:20;;;;;;;9.10;8.30;;;13.90;1.00;;;;;;5098888;28;20199;-57
2022/05/08 04:41:45;;;;;;;9.60;8.63;;;14.10;1.00;;;;;;5105552;28;20439;-58
2022/05/08 04:44:11;;;;;;;9.70;8.47;;;14.20;1.00;;;;;;5105500;28;20677;-58
2022/05/08 04:46:36;;;;;;;9.27;8.37;;;14.20;1.00;;;;;;5104807;28;20225;-57
2022/05/08 04:49:03;;;;;;;9.90;8.90;;;14.20;1.00;;;;;;5106459;28;20186;-58
2022/05/08 04:51:29;;;;;;;9.30;8.37;;;14.20;1.00;;;;;;5106155;28;20182;-57
2022/05/08 04:53:54;;;;;;;8.97;8.07;;;14.40;1.00;;;;;;5107880;28;20957;-57
2022/05/08 04:56:21;;;;;;;8.50;7.57;;;;;;;;;;5102601;28;20194;-57
2022/05/08 04:58:47;;;;;;;9.50;8.70;;;14.40;1.00;;;;;;5109212;28;20252;-57
2022/05/08 05:01:12;;;;;;;8.83;8.03;;;14.50;1.00;;;;;;5109616;28;21081;-58
2022/05/08 05:03:38;;;;;;;8.80;7.90;;;14.50;1.00;;;;;;5110364;28;20194;-57
2022/05/08 05:06:07;;;;;;;9.30;8.50;;;14.40;1.00;;;;;;5099410;28;20202;-58
2022/05/08 05:08:33;;;;;;;9.30;8.40;;;14.30;1.00;;;;;;5108394;28;20194;-57
2022/05/08 05:10:59;;;;;;;10.00;9.00;;;14.30;1.00;;;;;;5107622;28;20443;-58
2022/05/08 05:13:25;;;;;;;8.80;8.10;;;14.30;1.00;;;;;;5107840;28;20452;-58
2022/05/08 05:15:51;;;;;;;8.90;8.17;;;14.30;1.00;;;;;;5106042;28;20217;-58
2022/05/08 05:18:16;;;;;;;9.70;8.73;;;14.30;1.00;;;;;;5109685;28;20456;-56
2022/05/08 05:20:42;;;;;;;9.40;8.70;;;14.40;1.00;;;;;;5107591;28;20448;-57
2022/05/08 05:23:08;;;;;;;9.80;9.00;;;;;;;;;;5096374;28;20210;-59
2022/05/08 05:25:34;;;;;;;8.17;7.47;;;14.50;1.00;;;;;;5103466;28;20797;-58
2022/05/08 05:28:00;;;;;;;9.17;8.37;;;14.60;1.00;;;;;;5102228;28;20448;-59
2022/05/08 05:30:25;;;;;;;9.83;8.93;;;14.60;1.00;;;;;;5109364;28;20279;-56
2022/05/08 05:32:51;;;;;;;8.53;7.70;;;14.70;1.00;;;;;;5106057;28;20194;-57
2022/05/08 05:35:17;;;;;;;9.10;8.40;;;14.80;1.00;;;;;;5100188;28;20191;-57
2022/05/08 05:37:43;;;;;;;9.90;9.00;;;14.90;1.00;;;;;;5098955;28;20186;-58
2022/05/08 05:40:09;;;;;;;9.67;8.80;;;15.10;1.00;;;;;;5105481;28;20828;-58
2022/05/08 05:42:35;;;;;;;9.00;8.13;;;15.40;1.00;;;;;;5105599;28;20206;-57
2022/05/08 05:45:01;;;;;;;9.80;8.90;;;15.40;1.00;;;;;;5106289;28;20483;-58
2022/05/08 05:50:11;;;;;;;9.33;8.40;;;15.50;1.00;;;;;;5105992;28;20709;-59
2022/05/08 05:52:37;;;;;;;10.40;9.00;;;15.60;1.00;;;;;;5108990;28;20824;-57
2022/05/08 05:55:06;;;;;;;10.00;9.00;;;15.60;1.00;;;;;;5096080;28;20474;-58
2022/05/08 05:57:33;;;;;;;8.90;8.10;;;15.70;1.00;;;;;;5104597;28;20285;-57
2022/05/08 05:59:58;;;;;;;9.63;8.83;;;15.80;1.00;;;;;;5109626;28;20455;-58
2022/05/08 06:02:24;;;;;;;12.00;9.33;;;15.90;1.00;;;;;;5103577;28;20457;-60
2022/05/08 06:04:50;;;;;;;9.33;8.43;;;16.00;1.00;;;;;;5105720;28;20185;-59
2022/05/08 06:07:16;;;;;;;10.20;9.20;;;16.20;1.00;;;;;;5107143;28;20213;-57
2022/05/08 06:09:41;;;;;;;9.80;8.83;;;16.20;1.00;;;;;;5105217;28;20189;-58
2022/05/08 06:12:07;;;;;;;10.57;9.60;;;16.30;1.00;;;;;;5104409;28;20271;-57
2022/05/08 06:14:32;;;;;;;11.30;9.20;;;16.30;1.00;;;;;;5102773;28;20635;-58
2022/05/08 06:16:58;;;;;;;9.40;8.50;;;16.40;1.00;;;;;;5101731;28;20448;-58
2022/05/08 06:19:24;;;;;;;9.90;8.90;;;16.40;1.00;;;;;;5101956;28;20187;-58
2022/05/08 06:21:49;;;;;;;11.33;8.97;;;16.60;1.00;;;;;;5105218;28;20201;-57
2022/05/08 06:24:15;;;;;;;10.00;9.10;;;16.80;1.00;;;;;;5099222;28;20187;-58
2022/05/08 06:26:40;;;;;;;9.47;8.67;;;17.10;1.00;;;;;;5100081;28;20769;-58
2022/05/08 06:29:06;;;;;;;11.07;10.00;;;17.30;1.00;;;;;;5103169;28;20205;-56
2022/05/08 06:31:32;;;;;;;10.70;9.83;;;17.70;1.00;;;;;;5104394;28;20199;-58
2022/05/08 06:33:58;;;;;;;10.40;9.50;;;18.10;1.00;;;;;;5097202;28;20186;-58
2022/05/08 06:36:26;;;;;;;10.53;9.63;;;18.70;1.00;;;;;;5104181;28;20189;-60
2022/05/08 06:38:52;;;;;;;13.47;12.10;;;18.80;1.00;;;;;;5107777;28;20568;-57
2022/05/08 06:41:17;;;;;;;10.87;9.87;;;19.10;1.00;;;;;;5095636;28;20452;-58
2022/05/08 06:43:44;;;;;;;11.53;10.53;;;19.10;1.00;;;;;;5098447;28;20475;-58
2022/05/08 06:46:10;;;;;;;11.30;10.30;;;19.20;1.00;;;;;;5106000;28;20296;-57
2022/05/08 06:48:36;;;;;;;13.57;11.30;;;19.00;1.00;;;;;;5108966;28;20447;-58
2022/05/08 06:51:04;;;;;;;12.77;11.53;;;19.20;1.00;;;;;;5097903;28;20977;-57
2022/05/08 06:53:31;;;;;;;12.90;11.70;;;19.20;1.00;;;;;;5107236;28;20194;-58
2022/05/08 06:55:56;;;;;;;11.70;10.70;;;19.10;1.00;;;;;;5100605;28;20443;-58
2022/05/08 06:58:24;;;;;;;12.07;10.97;;;18.90;1.00;;;;;;5085603;28;20815;-58
2022/05/08 07:03:35;;;;;;;10.70;9.70;;;18.90;1.00;;;;;;5102764;28;20517;-57
2022/05/08 07:06:00;;;;;;;12.20;10.90;;;18.90;1.00;;;;;;5101223;28;20475;-59
2022/05/08 07:08:27;;;;;;;10.50;9.57;;;19.00;1.00;;;;;;5104353;28;20186;-59
2022/05/08 07:10:53;;;;;;;11.67;10.67;;;19.10;1.00;;;;;;5094592;28;20190;-61
2022/05/08 07:13:22;;;;;;;11.30;10.40;;;19.20;1.00;;;;;;5107792;28;20450;-61
2022/05/08 07:15:48;;;;;;;12.70;11.50;;;19.60;1.00;;;;;;5100094;28;20210;-61
2022/05/08 07:18:13;;;;;;;12.40;11.30;;;19.50;1.00;;;;;;5105640;28;20455;-61
2022/05/08 07:20:39;;;;;;;12.37;11.27;;;19.70;1.00;;;;;;5099138;28;20217;-61
2022/05/08 07:23:05;;;;;;;13.20;12.10;;;19.20;1.00;;;;;;5106116;28;20185;-61
2022/05/08 07:25:30;;;;;;;12.80;11.70;;;19.30;1.00;;;;;;5083539;28;20267;-61
2022/05/08 07:27:56;;;;;;;12.90;11.67;;;19.00;1.00;;;;;;5107451;28;20182;-60
2022/05/08 07:30:21;;;;;;;11.43;10.47;;;19.10;1.00;;;;;;5095735;28;20239;-61
2022/05/08 07:32:48;;;;;;;12.60;11.50;;;19.50;1.00;;;;;;5089961;28;20218;-59
2022/05/08 07:37:59;;;;;;;11.53;10.53;;;20.00;1.00;;;;;;5109436;28;20979;-58
2022/05/08 07:40:26;;;;;;;11.27;10.27;;;20.10;1.00;;;;;;5100655;28;20444;-59
2022/05/08 07:42:52;;;;;;;10.77;9.87;;;20.30;1.00;;;;;;5093199;28;20206;-59
2022/05/08 07:45:17;;;;;;;11.20;10.10;;;20.30;1.00;;;;;;5091402;28;20681;-59
2022/05/08 07:47:43;;;;;;;12.47;11.27;;;20.30;1.00;;;;;;5099784;28;20178;-59
2022/05/08 07:50:09;;;;;;;11.97;10.93;;;20.30;1.00;;;;;;5108749;28;20285;-60
2022/05/08 07:52:39;;;;;;;11.83;10.60;;;21.00;1.00;;;;;;5098418;28;20191;-59
2022/05/08 07:55:05;;;;;;;12.17;11.00;;;20.50;1.00;;;;;;5100028;28;20505;-60
2022/05/08 07:57:31;;;;;;;11.77;10.77;;;20.50;1.00;;;;;;5107627;28;20444;-60
2022/05/08 07:59:57;;;;;;;12.83;11.70;;;20.20;1.00;;;;;;5111599;28;20476;-59
2022/05/08 08:02:22;;;;;;;12.90;11.70;;;20.00;1.00;;;;;;5111550;28;20201;-60
2022/05/08 08:04:47;;;;;;;12.47;11.17;;;19.80;1.00;;;;;;5112157;28;20211;-59
2022/05/08 08:07:13;;;;;;;12.47;11.37;;;19.40;1.00;;;;;;5092440;28;20488;-59
2022/05/08 08:09:38;;;;;;;12.90;11.80;;;18.90;1.00;;;;;;5107865;28;20190;-60
2022/05/08 08:12:04;;;;;;;12.73;11.53;;;18.80;1.00;;;;;;5097394;28;20225;-60
2022/05/08 08:14:30;;;;;;;12.50;11.40;;;19.10;1.00;;;;;;5097139;28;20201;-60
2022/05/08 08:16:55;;;;;;;12.90;11.83;;;19.20;1.00;;;;;;5093610;28;20316;-59
2022/05/08 08:19:21;;;;;;;13.13;11.63;;;19.20;1.00;;;;;;5100748;28;20229;-60
2022/05/08 08:21:47;;;;;;;13.60;12.50;;;19.30;1.00;;;;;;5093087;28;20202;-58
2022/05/08 08:24:12;;;;;;;13.40;12.10;;;19.20;1.00;;;;;;5105878;28;20185;-59
2022/05/08 08:26:40;;;;;;;14.80;13.47;;;19.30;1.00;;;;;;5095284;28;20202;-58
2022/05/08 08:29:06;;;;;;;13.17;12.03;;;19.70;1.00;;;;;;5105765;28;20194;-59
2022/05/08 08:31:32;;;;;;;12.97;11.77;;;19.80;1.00;;;;;;5105029;28;20454;-59
2022/05/08 08:33:58;;;;;;;14.60;13.17;;;19.50;1.00;;;;;;5109936;28;20246;-58
2022/05/08 08:36:23;;;;;;;14.53;13.23;;;19.30;1.00;;;;;;5099738;28;20324;-59
2022/05/08 08:38:49;;;;;;;13.70;12.40;;;19.50;1.00;;;;;;5093962;28;20824;-58
2022/05/08 08:41:15;;;;;;;13.80;12.50;;;19.50;1.00;;;;;;5104718;28;20558;-57
2022/05/08 08:49:22;;;;;;;13.03;11.93;;;20.10;1.00;;;;;;5098470;28;20455;-60
2022/05/08 08:51:48;;;;;;;13.63;12.33;;;20.00;1.00;;;;;;5092741;28;20455;-60
2022/05/08 08:54:17;;;;;;;13.13;12.03;;;20.20;1.00;;;;;;5096858;28;20960;-61
2022/05/08 08:56:43;;;;;;;13.17;12.07;;;20.20;1.00;;;;;;5099832;28;20483;-60
2022/05/08 08:59:09;;;;;;;13.93;12.63;;;20.60;1.00;;;;;;5109919;28;20444;-59
2022/05/08 09:01:45;;;;;;;13.53;12.10;;;20.80;1.00;;;;;;5099450;28;20235;-60
2022/05/08 09:04:15;;;;;;;13.50;12.30;;;20.90;1.00;;;;;;5105516;28;20782;-59
2022/05/08 09:06:43;;;;;;;12.07;10.97;;;21.10;1.00;;;;;;5110004;28;20558;-60
2022/05/08 09:09:28;;;;;;;12.70;11.50;;;21.20;1.00;;;;;;5099774;28;20502;-60
2022/05/08 09:11:56;;;;;;;13.23;12.07;;;21.40;1.00;;;;;;5098487;28;20418;-59
2022/05/08 09:14:28;;;;;;;14.40;13.20;;;21.40;1.00;;;;;;5111604;28;20817;-60
2022/05/08 09:16:54;;;;;;;13.17;11.97;;;21.70;1.00;;;;;;5105182;28;20445;-59
2022/05/08 09:19:37;;;;;;;13.53;12.30;;;21.70;1.00;;;;;;5105383;28;20793;-60
2022/05/08 09:22:09;;;;;;;12.90;11.90;;;21.80;1.00;;;;;;5107335;28;20439;-59
2022/05/08 09:24:38;;;;;;;11.43;10.40;;;21.90;1.00;;;;;;5101468;28;21113;-60
2022/05/08 09:27:11;;;;;;;11.30;10.40;;;21.80;1.00;;;;;;5100080;28;20751;-59
2022/05/08 09:29:37;;;;;;;11.67;10.67;;;22.10;1.00;;;;;;5111418;28;20444;-58
2022/05/08 09:32:03;;;;;;;12.57;11.50;;;21.90;1.00;;;;;;5095965;28;20497;-59
2022/05/08 09:34:28;;;;;;;12.57;11.43;;;21.90;1.00;;;;;;5091220;28;20573;-59
2022/05/08 09:37:07;;;;;;;13.13;11.93;;;21.70;1.00;;;;;;5075802;28;20441;-60
2022/05/08 09:39:33;;;;;;;11.93;10.93;;;21.90;1.00;;;;;;5091567;28;20605;-60
2022/05/08 09:41:59;;;;;;;12.70;11.53;;;22.00;1.00;;;;;;5096858;28;20487;-59
2022/05/08 09:44:24;;;;;;;12.70;11.60;;;22.10;1.00;;;;;;5110893;28;20228;-60
2022/05/08 09:46:50;;;;;;;12.73;11.73;;;22.40;1.00;;;;;;5110064;28;20213;-59
2022/05/08 09:49:18;;;;;;;13.00;11.90;;;22.70;1.00;;;;;;5092593;28;20178;-60
2022/05/08 09:51:45;;;;;;;13.83;12.53;;;22.50;1.00;;;;;;5093869;28;20194;-59
2022/05/08 09:54:13;;;;;;;12.53;11.03;;;22.10;1.00;;;;;;5105463;28;20440;-60
2022/05/08 09:56:38;;;;;;;9.70;8.93;;;22.20;1.00;;;;;;5102547;28;20791;-60
2022/05/08 09:59:07;;;;;;;9.77;8.90;;;22.60;1.00;;;;;;5108803;28;20496;-60
2022/05/08 10:01:34;;;;;;;9.53;8.63;;;23.30;1.00;;;;;;5102051;28;20187;-60
2022/05/08 10:04:00;;;;;;;11.17;10.27;;;23.80;1.00;;;;;;5108621;28;20465;-58
2022/05/08 10:06:28;;;;;;;12.30;11.30;;;23.90;1.00;;;;;;5104014;28;20805;-60
2022/05/08 10:13:53;;;;;;;12.43;11.23;;;23.80;1.00;;;;;;5094718;28;20226;-59
2022/05/08 10:14:29;;;;;;;13.00;11.67;;;23.60;1.00;;;;;;5089314;28;20535;-59
2022/05/08 10:17:04;;;;;;;13.33;12.13;;;23.50;1.00;;;;;;5110381;28;20797;-59
2022/05/08 10:19:29;;;;;;;19.07;16.93;;;23.10;1.00;;;;;;5110433;28;20478;-60
2022/05/08 10:22:10;;;;;;;14.00;12.60;;;22.40;1.00;;;;;;5109222;28;20472;-60
2022/05/08 10:24:36;;;;;;;13.43;12.00;;;22.20;1.00;;;;;;5110221;28;20269;-61
2022/05/08 10:27:25;;;;;;;11.53;10.43;;;22.50;1.00;;;;;;5099033;28;20478;-59
2022/05/08 10:29:50;;;;;;;13.00;10.90;;;22.70;1.00;;;;;;5092563;28;21001;-59
2022/05/08 10:32:31;;;;;;;10.67;9.67;;;23.00;1.00;;;;;;5095903;28;20444;-59
2022/05/08 10:35:10;;;;;;;11.73;10.67;;;23.00;1.00;;;;;;5090915;28;20191;-60
2022/05/08 10:37:43;;;;;;;10.13;9.23;;;22.80;1.00;;;;;;5092618;28;20443;-60
2022/05/08 10:40:24;;;;;;;11.50;10.50;;;23.00;1.00;;;;;;5091734;28;20427;-59
2022/05/08 10:42:56;;;;;;;10.80;9.80;;;23.00;1.00;;;;;;5103984;28;20428;-59
2022/05/08 10:45:31;;;;;;;10.57;9.67;;;23.20;1.00;;;;;;5104865;28;21005;-59
2022/05/08 10:47:58;;;;;;;11.10;10.00;;;23.30;1.00;;;;;;5109980;28;20427;-59
2022/05/08 10:50:24;;;;;;;9.60;8.60;;;23.40;1.00;;;;;;5106546;28;20444;-60
2022/05/08 10:52:50;;;;;;;10.40;9.20;;;23.10;1.00;;;;;;5090052;28;20429;-59
2022/05/08 10:55:18;;;;;;;10.23;9.00;;;23.20;1.00;;;;;;5093253;28;20179;-59
2022/05/08 10:57:46;;;;;;;8.40;7.70;;;23.10;1.00;;;;;;5090715;28;20440;-59
2022/05/08 11:00:20;;;;;;;10.13;9.23;;;23.30;1.00;;;;;;5109729;28;20443;-59
2022/05/08 11:02:51;;;;;;;10.17;9.17;;;23.30;1.00;;;;;;5108692;28;22131;-60
2022/05/08 11:05:23;;;;;;;8.80;8.00;;;23.40;1.00;;;;;;5091749;28;20468;-60
2022/05/08 11:07:49;;;;;;;9.97;9.07;;;22.80;1.00;;;;;;5108942;28;20447;-60
2022/05/08 11:10:34;;;;;;;10.20;9.17;;;22.40;1.00;;;;;;5107875;28;20956;-59
2022/05/08 11:13:18;;;;;;;8.20;7.50;;;22.60;1.00;;;;;;5105465;28;20182;-60
2022/05/08 11:15:43;;;;;;;7.63;6.80;;;22.90;1.00;;;;;;5108263;28;20451;-59
2022/05/08 11:18:17;;;;;;;8.57;7.87;;;22.80;1.00;;;;;;5104895;28;20962;-60
2022/05/08 11:21:14;;;;;;;9.50;8.50;;;23.10;1.00;;;;;;5103682;28;20299;-60
2022/05/08 11:23:45;;;;;;;9.43;8.50;;;23.10;1.00;;;;;;5101020;28;20456;-59
2022/05/08 11:26:14;;;;;;;12.60;8.20;;;23.00;1.00;;;;;;5099893;28;20513;-57
2022/05/08 11:28:51;;;;;;;13.37;7.37;;;23.10;1.00;;;;;;5109481;28;20499;-60
2022/05/08 11:31:18;;;;;;;8.00;7.30;;;22.90;1.00;;;;;;5106045;28;20487;-60
2022/05/08 11:36:31;;;;;;;8.80;8.00;;;23.40;1.00;;;;;;5102219;28;20458;-60
2022/05/08 11:39:02;;;;;;;8.93;7.90;;;23.40;1.00;;;;;;5102006;28;20426;-59
2022/05/08 11:41:50;;;;;;;9.60;8.60;;;23.10;1.00;;;;;;5108827;28;20469;-60
2022/05/08 11:44:17;;;;;;;9.00;8.20;;;22.90;1.00;;;;;;5105845;28;20465;-60
2022/05/08 11:46:47;;;;;;;8.70;7.77;;;22.90;1.00;;;;;;5100149;28;20441;-59
2022/05/08 11:49:18;;;;;;;8.00;7.20;;;23.20;1.00;;;;;;5095590;28;20482;-60
2022/05/08 11:51:46;;;;;;;9.83;7.10;;;23.40;1.00;;;;;;5102799;28;20473;-59
2022/05/08 11:54:21;;;;;;;8.50;7.77;;;23.70;1.00;;;;;;5110804;28;20446;-59
2022/05/08 11:56:51;;;;;;;8.20;7.20;;;23.90;1.00;;;;;;5103599;28;21067;-60
2022/05/08 11:59:22;;;;;;;8.63;7.60;;;23.60;1.00;;;;;;5096201;28;20454;-59
2022/05/08 12:01:53;;;;;;;9.20;8.30;;;23.90;1.00;;;;;;5077042;28;20468;-60
2022/05/08 12:04:27;;;;;;;8.80;7.90;;;23.90;1.00;;;;;;5110628;28;20444;-59
2022/05/08 12:07:10;;;;;;;8.50;7.70;;;23.90;1.00;;;;;;5113017;28;20471;-60
2022/05/08 12:09:49;;;;;;;9.00;7.60;;;23.70;1.00;;;;;;5104457;28;20436;-59
2022/05/08 12:13:11;;;;;;;9.07;6.37;;;24.70;1.00;;;;;;5082091;28;20496;-59
2022/05/08 12:15:12;;;;;;;8.03;7.20;;;24.60;1.00;;;;;;5088592;28;20966;-61
2022/05/08 12:17:44;;;;;;;8.50;7.70;;;24.80;1.00;;;;;;5100658;28;20456;-59
2022/05/08 12:20:26;;;;;;;7.33;6.73;;;24.80;1.00;;;;;;5112587;28;20472;-59
2022/05/08 12:23:18;;;;;;;6.70;6.07;;;24.70;1.00;;;;;;5111743;28;21126;-59
2022/05/08 12:25:45;;;;;;;6.80;5.70;;;24.80;1.00;;;;;;5100938;28;20467;-60
2022/05/08 12:28:12;;;;;;;7.10;6.50;;;24.90;1.00;;;;;;5104513;28;20482;-59
2022/05/08 12:30:38;;;;;;;7.27;6.67;;;24.70;1.00;;;;;;5107769;28;20969;-59
2022/05/08 12:33:04;;;;;;;7.43;6.60;;;24.10;1.00;;;;;;5101074;28;20436;-59
2022/05/08 12:35:29;;;;;;;6.30;5.80;;;23.80;1.00;;;;;;5098108;28;20660;-60
2022/05/08 12:37:56;;;;;;;6.70;6.10;;;23.70;1.00;;;;;;5093609;28;20197;-60
2022/05/08 12:40:21;;;;;;;6.27;5.70;;;23.70;1.00;;;;;;5063728;28;21834;-60
2022/05/08 12:42:47;;;;;;;6.90;6.30;;;23.40;1.00;;;;;;5104368;28;20433;-59
2022/05/08 12:45:13;;;;;;;6.97;6.37;;;25.60;1.00;;;;;;5108919;28;20226;-60
2022/05/08 12:47:38;;;;;;;6.53;6.00;;;23.20;1.00;;;;;;5088722;28;20186;-60
2022/05/08 12:50:06;;;;;;;8.57;6.07;;;23.50;1.00;;;;;;5093956;28;20457;-59
2022/05/08 12:52:35;;;;;;;7.30;6.70;;;23.70;1.00;;;;;;5097879;28;20439;-60
2022/05/08 12:55:00;;;;;;;6.10;5.70;;;23.60;1.00;;;;;;5104231;28;20945;-60
2022/05/08 13:00:11;;;;;;;7.13;6.53;;;23.70;1.00;;;;;;5100600;28;20524;-61
2022/05/08 13:02:36;;;;;;;8.60;6.63;;;23.80;1.00;;;;;;5095914;28;20456;-60
2022/05/08 13:05:02;;;;;;;7.13;6.30;;;23.90;1.00;;;;;;5095422;28;20416;-60
2022/05/08 13:07:28;;;;;;;8.20;5.17;;;23.90;1.00;;;;;;5106855;28;20213;-60
2022/05/08 13:09:53;;;;;;;5.07;4.67;;;23.90;1.00;;;;;;5103718;28;20187;-61
2022/05/08 13:12:19;;;;;;;6.63;5.03;;;24.10;1.00;;;;;;5091627;28;20192;-60
2022/05/08 13:14:44;;;;;;;4.80;4.40;;;24.30;1.00;;;;;;5090725;28;20201;-61
2022/05/08 13:17:10;;;;;;;4.63;4.30;;;24.40;1.00;;;;;;5091089;28;20193;-60
2022/05/08 13:19:36;;;;;;;5.30;4.63;;;24.30;1.00;;;;;;5093260;28;20190;-61
2022/05/08 13:22:06;;;;;;;4.63;4.23;;;24.30;1.00;;;;;;5097666;28;20296;-59
2022/05/08 13:24:32;;;;;;;7.03;4.87;;;24.00;1.00;;;;;;5098014;28;20198;-59